createdAt,value
2022-11-16T00:00:21.390Z,899.07
2022-11-16T00:01:21.411Z,898.93
2022-11-16T00:02:21.503Z,899.04
2022-11-16T00:03:21.374Z,899.15
2022-11-16T00:04:21.675Z,899.67
2022-11-16T00:05:27.040Z,900.35
2022-11-16T00:06:22.361Z,900.68
2022-11-16T00:07:21.390Z,900.61
2022-11-16T00:08:21.308Z,900.07
2022-11-16T00:09:21.349Z,899.75
2022-11-16T00:10:21.328Z,899.55
2022-11-16T00:11:21.510Z,899.14
2022-11-16T00:12:21.269Z,898.88
2022-11-16T00:13:21.271Z,898.74
2022-11-16T00:14:21.300Z,898.75
2022-11-16T00:15:21.250Z,898.95
2022-11-16T00:16:21.222Z,899.33
2022-11-16T00:17:21.210Z,899.64
2022-11-16T00:18:21.204Z,900.54
2022-11-16T00:19:21.242Z,900.20
2022-11-16T00:20:21.169Z,900.09
2022-11-16T00:21:21.175Z,900.05
2022-11-16T00:22:21.172Z,899.52
2022-11-16T00:23:21.153Z,899.19
2022-11-16T00:24:21.172Z,898.76
2022-11-16T00:25:21.116Z,899.26
2022-11-16T00:26:21.123Z,899.47
2022-11-16T00:27:21.092Z,899.45
2022-11-16T00:28:21.085Z,899.69
2022-11-16T00:29:21.081Z,899.80
2022-11-16T00:30:21.161Z,899.08
2022-11-16T00:31:21.072Z,898.64
2022-11-16T00:32:21.039Z,898.69
2022-11-16T00:33:21.033Z,899.10
2022-11-16T00:34:21.015Z,899.47
2022-11-16T00:35:21.121Z,899.33
2022-11-16T00:36:20.996Z,899.19
2022-11-16T00:37:20.973Z,899.28
2022-11-16T00:38:20.997Z,899.41
2022-11-16T00:39:20.999Z,899.27
2022-11-16T00:40:24.934Z,898.79
2022-11-16T00:41:20.945Z,899.20
2022-11-16T00:42:20.945Z,900.05
2022-11-16T00:43:20.913Z,900.06
2022-11-16T00:44:20.940Z,900.67
2022-11-16T00:45:20.889Z,900.86
2022-11-16T00:46:20.869Z,900.24
2022-11-16T00:47:20.858Z,900.83
2022-11-16T00:48:20.867Z,901.04
2022-11-16T00:49:21.578Z,901.40
2022-11-16T00:50:20.835Z,901.55
2022-11-16T00:51:20.816Z,901.54
2022-11-16T00:52:20.803Z,901.68
2022-11-16T00:53:20.798Z,901.59
2022-11-16T00:54:20.814Z,901.07
2022-11-16T00:55:20.788Z,900.93
2022-11-16T00:56:20.767Z,901.57
2022-11-16T00:57:20.757Z,901.56
2022-11-16T00:58:20.726Z,901.31
2022-11-16T00:59:20.730Z,901.25
2022-11-16T01:00:32.230Z,900.95
2022-11-16T01:01:20.788Z,901.02
2022-11-16T01:02:20.695Z,901.46
2022-11-16T01:03:20.681Z,901.42
2022-11-16T01:04:20.677Z,901.18
2022-11-16T01:05:20.657Z,901.29
2022-11-16T01:06:20.638Z,900.94
2022-11-16T01:07:20.711Z,900.42
2022-11-16T01:08:20.621Z,899.71
2022-11-16T01:09:20.598Z,900.20
2022-11-16T01:10:20.658Z,900.04
2022-11-16T01:11:20.583Z,900.09
2022-11-16T01:12:20.590Z,899.94
2022-11-16T01:13:20.576Z,900.27
2022-11-16T01:14:20.549Z,900.60
2022-11-16T01:15:20.532Z,899.76
2022-11-16T01:16:20.593Z,899.73
2022-11-16T01:17:20.527Z,899.32
2022-11-16T01:18:20.498Z,898.92
2022-11-16T01:19:20.526Z,898.74
2022-11-16T01:20:20.480Z,899.26
2022-11-16T01:21:20.469Z,899.40
2022-11-16T01:22:20.472Z,899.49
2022-11-16T01:23:20.483Z,900.24
2022-11-16T01:24:20.468Z,900.19
2022-11-16T01:25:20.412Z,900.42
2022-11-16T01:26:20.437Z,900.94
2022-11-16T01:27:20.410Z,900.79
2022-11-16T01:28:20.389Z,900.40
2022-11-16T01:29:20.401Z,900.09
2022-11-16T01:30:20.392Z,899.77
2022-11-16T01:31:20.352Z,900.30
2022-11-16T01:32:20.354Z,901.00
2022-11-16T01:33:20.360Z,900.86
2022-11-16T01:34:20.343Z,901.22
2022-11-16T01:35:20.325Z,901.21
2022-11-16T01:36:20.291Z,901.25
2022-11-16T01:37:20.299Z,901.21
2022-11-16T01:38:20.262Z,900.96
2022-11-16T01:39:20.328Z,900.51
2022-11-16T01:40:20.253Z,900.01
2022-11-16T01:41:20.254Z,899.73
2022-11-16T01:42:20.277Z,899.27
2022-11-16T01:43:20.227Z,898.84
2022-11-16T01:44:20.215Z,897.93
2022-11-16T01:45:20.194Z,897.78
2022-11-16T01:46:20.187Z,899.11
2022-11-16T01:47:20.179Z,899.88
2022-11-16T01:48:20.210Z,898.72
2022-11-16T01:49:20.153Z,898.10
2022-11-16T01:50:20.164Z,898.56
2022-11-16T01:51:20.124Z,898.56
2022-11-16T01:52:20.104Z,898.52
2022-11-16T01:53:20.115Z,898.51
2022-11-16T01:54:20.101Z,898.35
2022-11-16T01:55:20.074Z,897.62
2022-11-16T01:56:20.094Z,897.46
2022-11-16T01:57:20.055Z,898.43
2022-11-16T01:58:20.053Z,898.74
2022-11-16T01:59:20.045Z,899.10
2022-11-16T02:00:20.039Z,899.33
2022-11-16T02:01:20.083Z,899.08
2022-11-16T02:02:19.996Z,898.70
2022-11-16T02:03:20.015Z,898.29
2022-11-16T02:04:19.984Z,898.70
2022-11-16T02:05:20.010Z,898.83
2022-11-16T02:06:19.961Z,898.73
2022-11-16T02:07:19.987Z,898.74
2022-11-16T02:08:19.963Z,898.42
2022-11-16T02:09:19.919Z,898.54
2022-11-16T02:10:19.901Z,898.68
2022-11-16T02:11:19.884Z,898.88
2022-11-16T02:12:19.887Z,898.41
2022-11-16T02:13:19.877Z,898.28
2022-11-16T02:14:19.876Z,898.80
2022-11-16T02:15:19.837Z,898.46
2022-11-16T02:16:19.826Z,898.71
2022-11-16T02:17:19.819Z,898.85
2022-11-16T02:18:19.805Z,899.02
2022-11-16T02:19:19.816Z,899.22
2022-11-16T02:20:19.789Z,899.19
2022-11-16T02:21:19.767Z,899.14
2022-11-16T02:22:19.798Z,899.37
2022-11-16T02:23:19.747Z,898.39
2022-11-16T02:24:19.771Z,898.21
2022-11-16T02:25:19.724Z,898.91
2022-11-16T02:26:19.717Z,899.50
2022-11-16T02:27:19.719Z,899.51
2022-11-16T02:28:20.007Z,899.15
2022-11-16T02:29:19.979Z,899.15
2022-11-16T02:30:19.668Z,899.43
2022-11-16T02:31:19.683Z,900.51
2022-11-16T02:32:19.650Z,900.15
2022-11-16T02:33:19.643Z,899.98
2022-11-16T02:34:19.650Z,900.17
2022-11-16T02:35:19.608Z,900.03
2022-11-16T02:36:19.608Z,900.30
2022-11-16T02:37:19.598Z,899.77
2022-11-16T02:38:19.585Z,899.60
2022-11-16T02:39:19.587Z,900.04
2022-11-16T02:40:19.558Z,899.80
2022-11-16T02:41:19.542Z,899.86
2022-11-16T02:42:19.546Z,899.72
2022-11-16T02:43:19.533Z,900.15
2022-11-16T02:44:19.548Z,900.55
2022-11-16T02:45:19.499Z,900.80
2022-11-16T02:46:19.520Z,901.18
2022-11-16T02:47:19.470Z,901.25
2022-11-16T02:48:19.479Z,901.48
2022-11-16T02:49:19.499Z,901.71
2022-11-16T02:50:19.443Z,901.80
2022-11-16T02:51:19.439Z,901.62
2022-11-16T02:52:19.537Z,902.45
2022-11-16T02:53:19.431Z,903.50
2022-11-16T02:54:19.411Z,904.30
2022-11-16T02:55:19.419Z,904.34
2022-11-16T02:56:19.382Z,904.63
2022-11-16T02:57:19.405Z,904.74
2022-11-16T02:58:19.385Z,904.00
2022-11-16T02:59:19.343Z,903.93
2022-11-16T03:00:19.339Z,903.93
2022-11-16T03:01:19.357Z,904.03
2022-11-16T03:02:19.312Z,903.94
2022-11-16T03:03:19.303Z,903.73
2022-11-16T03:04:19.302Z,903.91
2022-11-16T03:05:19.282Z,903.54
2022-11-16T03:06:19.279Z,903.38
2022-11-16T03:07:19.296Z,902.94
2022-11-16T03:08:19.255Z,902.78
2022-11-16T03:09:19.251Z,903.22
2022-11-16T03:10:19.205Z,902.70
2022-11-16T03:11:19.226Z,902.49
2022-11-16T03:12:19.205Z,903.09
2022-11-16T03:13:19.193Z,902.84
2022-11-16T03:14:19.204Z,902.61
2022-11-16T03:15:19.175Z,903.04
2022-11-16T03:16:19.151Z,902.72
2022-11-16T03:17:19.160Z,903.64
2022-11-16T03:18:19.116Z,903.68
2022-11-16T03:19:19.135Z,904.45
2022-11-16T03:20:19.103Z,904.46
2022-11-16T03:21:19.084Z,903.78
2022-11-16T03:22:19.075Z,903.76
2022-11-16T03:23:19.085Z,903.65
2022-11-16T03:24:19.065Z,903.22
2022-11-16T03:25:19.048Z,903.47
2022-11-16T03:26:19.034Z,903.57
2022-11-16T03:27:19.041Z,904.01
2022-11-16T03:28:19.006Z,904.15
2022-11-16T03:29:19.269Z,904.53
2022-11-16T03:30:23.206Z,904.63
2022-11-16T03:31:18.990Z,904.77
2022-11-16T03:32:18.973Z,905.17
2022-11-16T03:33:18.975Z,905.13
2022-11-16T03:34:18.989Z,904.68
2022-11-16T03:35:18.957Z,904.52
2022-11-16T03:36:18.926Z,905.46
2022-11-16T03:37:18.907Z,905.83
2022-11-16T03:38:18.923Z,906.20
2022-11-16T03:39:18.898Z,905.86
2022-11-16T03:40:18.879Z,905.39
2022-11-16T03:41:18.871Z,905.31
2022-11-16T03:42:18.845Z,905.09
2022-11-16T03:43:18.857Z,905.08
2022-11-16T03:44:18.854Z,905.51
2022-11-16T03:45:18.817Z,905.52
2022-11-16T03:46:18.806Z,905.30
2022-11-16T03:47:18.790Z,904.48
2022-11-16T03:48:18.801Z,904.78
2022-11-16T03:49:18.806Z,905.17
2022-11-16T03:50:18.750Z,905.14
2022-11-16T03:51:18.738Z,905.02
2022-11-16T03:52:18.752Z,904.10
2022-11-16T03:53:18.748Z,904.29
2022-11-16T03:54:18.744Z,904.39
2022-11-16T03:55:18.702Z,904.39
2022-11-16T03:56:18.699Z,904.12
2022-11-16T03:57:18.721Z,904.05
2022-11-16T03:58:18.772Z,904.10
2022-11-16T03:59:18.697Z,904.11
2022-11-16T04:00:18.659Z,904.43
2022-11-16T04:01:18.697Z,904.73
2022-11-16T04:02:18.628Z,904.52
2022-11-16T04:03:18.650Z,904.59
2022-11-16T04:04:18.626Z,904.68
2022-11-16T04:05:18.591Z,904.22
2022-11-16T04:06:18.588Z,904.20
2022-11-16T04:07:18.648Z,903.98
2022-11-16T04:08:18.578Z,903.80
2022-11-16T04:09:18.578Z,903.90
2022-11-16T04:10:18.552Z,904.54
2022-11-16T04:11:18.522Z,904.44
2022-11-16T04:12:18.530Z,904.11
2022-11-16T04:13:18.503Z,903.96
2022-11-16T04:14:18.537Z,904.40
2022-11-16T04:15:18.492Z,904.08
2022-11-16T04:16:18.463Z,904.27
2022-11-16T04:17:18.457Z,904.39
2022-11-16T04:18:18.451Z,904.86
2022-11-16T04:19:18.458Z,904.71
2022-11-16T04:20:18.430Z,904.74
2022-11-16T04:21:18.421Z,904.85
2022-11-16T04:22:18.406Z,905.24
2022-11-16T04:23:18.413Z,904.62
2022-11-16T04:24:18.405Z,903.93
2022-11-16T04:25:18.371Z,905.08
2022-11-16T04:26:18.366Z,905.37
2022-11-16T04:27:18.353Z,905.71
2022-11-16T04:28:18.336Z,905.34
2022-11-16T04:29:18.345Z,905.20
2022-11-16T04:30:18.316Z,905.21
2022-11-16T04:31:18.300Z,904.99
2022-11-16T04:32:18.316Z,904.90
2022-11-16T04:33:18.294Z,904.59
2022-11-16T04:34:18.267Z,904.76
2022-11-16T04:35:18.264Z,904.33
2022-11-16T04:36:20.706Z,904.88
2022-11-16T04:37:18.216Z,904.96
2022-11-16T04:38:18.239Z,904.50
2022-11-16T04:39:18.211Z,904.11
2022-11-16T04:40:18.213Z,903.95
2022-11-16T04:41:18.176Z,903.79
2022-11-16T04:42:18.173Z,903.46
2022-11-16T04:43:18.183Z,904.70
2022-11-16T04:44:18.228Z,905.20
2022-11-16T04:45:18.129Z,905.41
2022-11-16T04:46:18.125Z,905.25
2022-11-16T04:47:18.119Z,905.13
2022-11-16T04:48:18.116Z,905.03
2022-11-16T04:49:18.126Z,905.67
2022-11-16T04:50:18.102Z,905.52
2022-11-16T04:51:18.058Z,906.07
2022-11-16T04:52:18.079Z,906.91
2022-11-16T04:53:18.038Z,906.29
2022-11-16T04:54:18.079Z,906.11
2022-11-16T04:55:18.047Z,905.01
2022-11-16T04:56:18.030Z,905.15
2022-11-16T04:57:17.997Z,905.02
2022-11-16T04:58:18.004Z,905.32
2022-11-16T04:59:18.029Z,906.18
2022-11-16T05:00:17.966Z,906.35
2022-11-16T05:01:18.009Z,906.18
2022-11-16T05:02:17.938Z,906.06
2022-11-16T05:03:17.950Z,906.00
2022-11-16T05:04:17.958Z,906.03
2022-11-16T05:05:17.942Z,906.49
2022-11-16T05:06:17.888Z,906.17
2022-11-16T05:07:17.928Z,905.58
2022-11-16T05:08:17.882Z,905.34
2022-11-16T05:09:17.878Z,905.15
2022-11-16T05:10:17.868Z,905.50
2022-11-16T05:11:17.842Z,906.05
2022-11-16T05:12:17.829Z,905.88
2022-11-16T05:13:17.852Z,905.83
2022-11-16T05:14:17.866Z,905.99
2022-11-16T05:15:18.038Z,906.48
2022-11-16T05:16:17.784Z,906.62
2022-11-16T05:17:17.780Z,906.70
2022-11-16T05:18:17.773Z,906.23
2022-11-16T05:19:17.780Z,906.29
2022-11-16T05:20:17.732Z,906.08
2022-11-16T05:21:17.742Z,906.52
2022-11-16T05:22:17.712Z,906.18
2022-11-16T05:23:17.725Z,906.31
2022-11-16T05:24:17.716Z,906.31
2022-11-16T05:25:17.683Z,906.50
2022-11-16T05:26:17.665Z,907.18
2022-11-16T05:27:17.661Z,907.14
2022-11-16T05:28:17.647Z,907.49
2022-11-16T05:29:17.638Z,907.85
2022-11-16T05:30:17.634Z,908.50
2022-11-16T05:31:17.626Z,909.23
2022-11-16T05:32:17.604Z,909.97
2022-11-16T05:33:17.615Z,911.20
2022-11-16T05:34:17.605Z,911.51
2022-11-16T05:35:17.612Z,912.54
2022-11-16T05:36:17.574Z,913.47
2022-11-16T05:37:17.798Z,914.47
2022-11-16T05:38:17.545Z,915.48
2022-11-16T05:39:17.551Z,916.57
2022-11-16T05:40:17.516Z,917.14
2022-11-16T05:41:17.498Z,917.46
2022-11-16T05:42:17.485Z,917.95
2022-11-16T05:43:17.486Z,918.58
2022-11-16T05:44:21.379Z,919.25
2022-11-16T05:45:21.014Z,919.36
2022-11-16T05:46:17.462Z,919.21
2022-11-16T05:47:17.434Z,919.70
2022-11-16T05:48:17.429Z,920.29
2022-11-16T05:49:17.395Z,921.61
2022-11-16T05:50:17.418Z,923.44
2022-11-16T05:51:17.375Z,924.31
2022-11-16T05:52:17.410Z,925.79
2022-11-16T05:53:17.372Z,926.38
2022-11-16T05:54:17.359Z,927.50
2022-11-16T05:55:17.392Z,929.08
2022-11-16T05:56:17.380Z,931.65
2022-11-16T05:57:17.297Z,933.80
2022-11-16T05:58:17.327Z,934.97
2022-11-16T05:59:17.298Z,935.10
2022-11-16T06:00:17.290Z,936.44
2022-11-16T06:01:17.344Z,938.12
2022-11-16T06:02:17.278Z,938.94
2022-11-16T06:03:17.278Z,940.56
2022-11-16T06:04:38.259Z,941.34
2022-11-16T06:05:17.288Z,942.09
2022-11-16T06:06:17.207Z,943.06
2022-11-16T06:07:17.274Z,943.63
2022-11-16T06:08:17.189Z,944.88
2022-11-16T06:09:17.194Z,945.55
2022-11-16T06:10:17.199Z,947.09
2022-11-16T06:11:17.152Z,948.52
2022-11-16T06:12:17.146Z,949.19
2022-11-16T06:13:17.166Z,949.89
2022-11-16T06:14:17.135Z,950.64
2022-11-16T06:15:18.864Z,951.43
2022-11-16T06:16:17.134Z,950.99
2022-11-16T06:17:17.070Z,951.88
2022-11-16T06:18:17.106Z,952.83
2022-11-16T06:19:17.070Z,954.22
2022-11-16T06:20:17.071Z,954.38
2022-11-16T06:21:17.036Z,954.25
2022-11-16T06:22:17.049Z,952.47
2022-11-16T06:23:17.019Z,950.03
2022-11-16T06:24:17.029Z,945.97
2022-11-16T06:25:17.009Z,943.54
2022-11-16T06:26:16.989Z,944.32
2022-11-16T06:27:16.960Z,945.07
2022-11-16T06:28:16.950Z,944.28
2022-11-16T06:29:16.939Z,944.38
2022-11-16T06:30:16.941Z,942.51
2022-11-16T06:31:16.910Z,943.16
2022-11-16T06:32:16.914Z,944.51
2022-11-16T06:33:16.901Z,945.17
2022-11-16T06:34:16.900Z,947.11
2022-11-16T06:35:16.874Z,947.01
2022-11-16T06:36:16.973Z,946.99
2022-11-16T06:37:16.852Z,946.19
2022-11-16T06:38:16.853Z,945.47
2022-11-16T06:39:16.852Z,944.10
2022-11-16T06:40:16.819Z,943.00
2022-11-16T06:41:16.816Z,941.67
2022-11-16T06:42:16.804Z,940.61
2022-11-16T06:43:16.783Z,939.87
2022-11-16T06:44:16.794Z,940.27
2022-11-16T06:45:16.761Z,940.91
2022-11-16T06:46:16.773Z,941.47
2022-11-16T06:47:16.777Z,942.93
2022-11-16T06:48:16.744Z,945.23
2022-11-16T06:49:16.723Z,947.63
2022-11-16T06:50:16.737Z,949.49
2022-11-16T06:51:16.685Z,950.76
2022-11-16T06:52:16.683Z,952.28
2022-11-16T06:53:16.694Z,952.87
2022-11-16T06:54:16.702Z,953.13
2022-11-16T06:55:16.656Z,952.66
2022-11-16T06:56:16.654Z,952.77
2022-11-16T06:57:16.620Z,954.40
2022-11-16T06:58:16.613Z,957.02
2022-11-16T06:59:16.653Z,959.87
2022-11-16T07:00:16.624Z,961.81
2022-11-16T07:01:16.635Z,963.92
2022-11-16T07:02:16.585Z,965.31
2022-11-16T07:03:16.564Z,966.99
2022-11-16T07:04:16.554Z,969.18
2022-11-16T07:05:16.564Z,971.78
2022-11-16T07:06:16.545Z,973.42
2022-11-16T07:07:16.588Z,975.41
2022-11-16T07:08:16.494Z,976.88
2022-11-16T07:09:16.485Z,978.32
2022-11-16T07:10:16.516Z,979.38
2022-11-16T07:11:16.464Z,979.51
2022-11-16T07:12:16.455Z,981.19
2022-11-16T07:13:16.465Z,982.65
2022-11-16T07:14:16.467Z,985.31
2022-11-16T07:15:16.473Z,986.86
2022-11-16T07:16:16.407Z,987.86
2022-11-16T07:17:16.424Z,990.11
2022-11-16T07:18:16.381Z,991.27
2022-11-16T07:19:16.388Z,993.12
2022-11-16T07:20:16.368Z,994.56
2022-11-16T07:21:16.366Z,996.14
2022-11-16T07:22:16.380Z,997.24
2022-11-16T07:23:16.346Z,997.99
2022-11-16T07:24:16.349Z,999.57
2022-11-16T07:25:16.319Z,1000.96
2022-11-16T07:26:16.317Z,1001.62
2022-11-16T07:27:16.308Z,1002.18
2022-11-16T07:28:16.268Z,1000.69
2022-11-16T07:29:16.289Z,999.36
2022-11-16T07:30:16.260Z,1000.43
2022-11-16T07:31:16.247Z,1000.98
2022-11-16T07:32:16.258Z,1002.87
2022-11-16T07:33:16.234Z,1003.48
2022-11-16T07:34:16.227Z,1004.17
2022-11-16T07:35:16.198Z,1005.40
2022-11-16T07:36:16.198Z,1007.07
2022-11-16T07:37:16.200Z,1010.32
2022-11-16T07:38:18.193Z,1012.63
2022-11-16T07:39:16.148Z,1013.72
2022-11-16T07:40:16.149Z,1014.26
2022-11-16T07:41:16.149Z,1016.17
2022-11-16T07:42:16.128Z,1016.30
2022-11-16T07:43:16.099Z,1015.95
2022-11-16T07:44:16.162Z,1015.23
2022-11-16T07:45:16.189Z,1017.45
2022-11-16T07:47:17.088Z,1018.62
2022-11-16T07:48:16.075Z,1019.17
2022-11-16T07:49:16.101Z,1019.52
2022-11-16T07:50:16.083Z,1019.66
2022-11-16T07:51:16.109Z,1020.01
2022-11-16T07:52:16.091Z,1020.03
2022-11-16T07:53:16.099Z,1019.89
2022-11-16T07:54:15.988Z,1020.14
2022-11-16T07:55:15.970Z,1019.97
2022-11-16T07:56:15.988Z,1020.17
2022-11-16T07:57:15.980Z,1020.07
2022-11-16T07:58:15.957Z,1019.71
2022-11-16T07:59:15.970Z,1019.10
2022-11-16T08:00:15.921Z,1018.78
2022-11-16T08:01:15.979Z,1018.62
2022-11-16T08:02:15.950Z,1018.11
2022-11-16T08:03:19.237Z,1018.15
2022-11-16T08:04:16.871Z,1020.03
2022-11-16T08:05:15.919Z,1019.42
2022-11-16T08:06:15.959Z,1016.42
2022-11-16T08:07:15.921Z,1016.84
2022-11-16T08:08:15.845Z,1015.65
2022-11-16T08:09:15.859Z,1012.94
2022-11-16T08:10:15.881Z,1015.23
2022-11-16T08:11:15.850Z,1012.80
2022-11-16T08:12:15.781Z,1015.01
2022-11-16T08:13:15.796Z,1015.35
2022-11-16T08:14:15.767Z,1015.00
2022-11-16T08:15:15.774Z,1014.23
2022-11-16T08:16:15.851Z,1014.30
2022-11-16T08:17:15.744Z,1014.20
2022-11-16T08:18:15.744Z,1013.96
2022-11-16T08:19:15.758Z,1014.22
2022-11-16T08:20:15.693Z,1014.90
2022-11-16T08:21:15.722Z,1015.26
2022-11-16T08:22:15.693Z,1015.58
2022-11-16T08:23:15.673Z,1015.70
2022-11-16T08:24:15.644Z,1015.32
2022-11-16T08:25:15.640Z,1014.89
2022-11-16T08:26:15.786Z,1014.25
2022-11-16T08:27:15.614Z,1013.94
2022-11-16T08:28:15.713Z,1014.11
2022-11-16T08:29:15.614Z,1014.32
2022-11-16T08:30:15.583Z,1015.06
2022-11-16T08:31:15.592Z,1015.29
2022-11-16T08:32:15.557Z,1015.13
2022-11-16T08:33:15.564Z,1015.26
2022-11-16T08:34:15.557Z,1015.59
2022-11-16T08:35:15.530Z,1014.87
2022-11-16T08:36:15.626Z,1013.00
2022-11-16T08:37:15.494Z,1010.48
2022-11-16T08:38:15.503Z,1008.22
2022-11-16T08:39:15.507Z,1006.01
2022-11-16T08:40:15.491Z,1003.92
2022-11-16T08:41:15.465Z,1002.81
2022-11-16T08:42:15.445Z,1001.59
2022-11-16T08:43:15.465Z,999.85
2022-11-16T08:44:15.437Z,998.49
2022-11-16T08:45:15.419Z,996.62
2022-11-16T08:46:15.537Z,995.25
2022-11-16T08:47:15.384Z,993.79
2022-11-16T08:48:15.394Z,991.85
2022-11-16T08:49:15.375Z,991.44
2022-11-16T08:50:15.634Z,990.36
2022-11-16T08:51:18.486Z,989.62
2022-11-16T08:52:15.333Z,988.11
2022-11-16T08:53:15.351Z,987.47
2022-11-16T08:54:15.306Z,987.21
2022-11-16T08:55:15.306Z,986.47
2022-11-16T08:56:15.302Z,986.38
2022-11-16T08:57:15.337Z,985.57
2022-11-16T08:58:15.271Z,984.80
2022-11-16T08:59:15.337Z,984.10
2022-11-16T09:00:15.262Z,984.28
2022-11-16T09:01:15.270Z,983.53
2022-11-16T09:02:15.322Z,984.10
2022-11-16T09:03:15.208Z,984.48
2022-11-16T09:04:15.187Z,984.55
2022-11-16T09:05:15.224Z,984.65
2022-11-16T09:06:15.218Z,985.52
2022-11-16T09:07:15.253Z,985.61
2022-11-16T09:08:15.148Z,984.95
2022-11-16T09:09:15.209Z,982.66
2022-11-16T09:10:15.117Z,962.73
2022-11-16T09:11:15.129Z,983.76
2022-11-16T09:12:15.098Z,985.21
2022-11-16T09:13:15.104Z,983.85
2022-11-16T09:14:15.090Z,983.56
2022-11-16T09:15:15.078Z,982.81
2022-11-16T09:16:15.049Z,982.48
2022-11-16T09:17:23.235Z,945.40
2022-11-16T09:18:15.048Z,980.68
2022-11-16T09:19:15.447Z,978.44
2022-11-16T09:20:15.011Z,978.30
2022-11-16T09:21:15.051Z,976.91
2022-11-16T09:22:15.008Z,976.52
2022-11-16T09:23:27.718Z,976.27
2022-11-16T09:24:15.292Z,976.03
2022-11-16T09:25:14.951Z,975.92
2022-11-16T09:26:14.991Z,975.81
2022-11-16T09:27:14.967Z,974.43
2022-11-16T09:28:17.461Z,973.87
2022-11-16T09:29:14.951Z,972.65
2022-11-16T09:30:14.880Z,970.67
2022-11-16T09:31:20.289Z,969.78
2022-11-16T09:32:15.871Z,969.07
2022-11-16T09:33:14.874Z,969.12
2022-11-16T09:34:14.871Z,968.60
2022-11-16T09:35:14.821Z,968.61
2022-11-16T09:36:15.092Z,969.11
2022-11-16T09:37:14.812Z,968.59
2022-11-16T09:38:20.716Z,968.47
2022-11-16T09:39:31.970Z,967.41
2022-11-16T09:40:15.803Z,959.92
2022-11-16T09:41:14.772Z,967.31
2022-11-16T09:42:14.773Z,966.06
2022-11-16T09:43:14.754Z,954.84
2022-11-16T09:44:14.818Z,964.78
2022-11-16T09:45:14.725Z,965.22
2022-11-16T09:46:14.715Z,965.16
2022-11-16T09:47:14.725Z,965.46
2022-11-16T09:48:14.709Z,964.90
2022-11-16T09:49:17.618Z,965.17
2022-11-16T09:50:14.683Z,965.30
2022-11-16T09:51:14.693Z,965.34
2022-11-16T09:52:14.663Z,965.05
2022-11-16T09:53:14.626Z,965.28
2022-11-16T09:54:14.613Z,966.39
2022-11-16T09:55:16.202Z,968.80
2022-11-16T09:56:20.655Z,968.95
2022-11-16T09:57:15.586Z,968.41
2022-11-16T09:58:14.574Z,968.13
2022-11-16T09:59:18.144Z,966.32
2022-11-16T10:00:14.717Z,965.15
2022-11-16T10:01:14.567Z,965.61
2022-11-16T10:02:14.616Z,962.61
2022-11-16T10:03:14.505Z,966.15
2022-11-16T10:04:14.516Z,966.30
2022-11-16T10:05:14.527Z,966.04
2022-11-16T10:06:14.475Z,965.69
2022-11-16T10:07:14.532Z,964.94
2022-11-16T10:08:14.463Z,964.88
2022-11-16T10:09:14.559Z,964.07
2022-11-16T10:10:16.376Z,963.62
2022-11-16T10:11:14.448Z,963.84
2022-11-16T10:12:14.439Z,963.83
2022-11-16T10:13:14.418Z,964.15
2022-11-16T10:14:18.332Z,963.95
2022-11-16T10:15:14.386Z,964.39
2022-11-16T10:16:14.378Z,963.83
2022-11-16T10:17:14.385Z,964.04
2022-11-16T10:18:14.675Z,963.86
2022-11-16T10:19:14.385Z,964.47
2022-11-16T10:20:14.326Z,964.74
2022-11-16T10:21:14.348Z,964.22
2022-11-16T10:22:14.366Z,964.84
2022-11-16T10:23:14.316Z,964.52
2022-11-16T10:24:19.065Z,966.67
2022-11-16T10:25:14.325Z,937.99
2022-11-16T10:26:14.322Z,964.90
2022-11-16T10:27:20.762Z,966.00
2022-11-16T10:28:16.081Z,956.77
2022-11-16T10:29:14.260Z,966.51
2022-11-16T10:30:14.213Z,936.75
2022-11-16T10:31:14.221Z,961.81
2022-11-16T10:32:14.196Z,909.74
2022-11-16T10:33:14.212Z,901.75
2022-11-16T10:34:14.171Z,942.89
2022-11-16T10:35:14.157Z,964.52
2022-11-16T10:36:14.152Z,959.88
2022-11-16T10:37:14.174Z,959.46
2022-11-16T10:38:14.156Z,959.04
2022-11-16T10:39:14.121Z,960.14
2022-11-16T10:40:14.144Z,959.47
2022-11-16T10:41:14.082Z,958.77
2022-11-16T10:42:14.074Z,959.42
2022-11-16T10:43:14.081Z,958.47
2022-11-16T10:44:14.074Z,951.46
2022-11-16T10:45:14.052Z,956.38
2022-11-16T10:46:14.041Z,960.33
2022-11-16T10:47:14.059Z,961.28
2022-11-16T10:48:14.135Z,961.88
2022-11-16T10:49:13.996Z,962.60
2022-11-16T10:50:14.013Z,960.76
2022-11-16T10:51:13.982Z,959.05
2022-11-16T10:52:13.973Z,959.45
2022-11-16T10:53:13.995Z,957.21
2022-11-16T10:54:13.933Z,953.94
2022-11-16T10:55:13.941Z,941.80
2022-11-16T10:56:13.935Z,939.76
2022-11-16T10:57:13.975Z,942.69
2022-11-16T10:58:14.003Z,937.98
2022-11-16T10:59:13.925Z,937.40
2022-11-16T11:00:17.128Z,936.54
2022-11-16T11:01:14.945Z,937.54
2022-11-16T11:02:13.902Z,937.78
2022-11-16T11:03:13.853Z,937.85
2022-11-16T11:04:13.842Z,941.12
2022-11-16T11:05:13.824Z,935.88
2022-11-16T11:06:13.826Z,933.31
2022-11-16T11:07:13.903Z,932.05
2022-11-16T11:08:13.865Z,933.80
2022-11-16T11:09:13.796Z,932.50
2022-11-16T11:10:13.790Z,931.29
2022-11-16T11:11:13.755Z,930.83
2022-11-16T11:12:13.745Z,929.94
2022-11-16T11:13:13.816Z,927.77
2022-11-16T11:14:13.783Z,927.26
2022-11-16T11:15:13.725Z,929.78
2022-11-16T11:16:13.716Z,932.01
2022-11-16T11:17:14.667Z,933.53
2022-11-16T11:18:13.756Z,934.21
2022-11-16T11:19:13.694Z,936.87
2022-11-16T11:20:13.694Z,936.24
2022-11-16T11:21:13.636Z,933.54
2022-11-16T11:22:13.637Z,933.67
2022-11-16T11:23:13.638Z,934.65
2022-11-16T11:24:42.892Z,933.30
2022-11-16T11:25:14.607Z,935.75
2022-11-16T11:26:13.607Z,940.20
2022-11-16T11:27:13.591Z,948.74
2022-11-16T11:28:13.629Z,871.23
2022-11-16T11:29:13.607Z,939.58
2022-11-16T11:30:13.587Z,953.77
2022-11-16T11:31:13.537Z,953.94
2022-11-16T11:32:18.024Z,959.53
2022-11-16T11:33:14.524Z,962.24
2022-11-16T11:34:13.619Z,956.77
2022-11-16T11:35:13.793Z,962.35
2022-11-16T11:36:13.509Z,958.84
2022-11-16T11:37:13.520Z,952.25
2022-11-16T11:38:13.459Z,941.86
2022-11-16T11:39:13.560Z,938.15
2022-11-16T11:40:13.439Z,934.11
2022-11-16T11:41:13.467Z,927.94
2022-11-16T11:42:13.438Z,935.28
2022-11-16T11:43:18.667Z,943.89
2022-11-16T11:44:14.411Z,953.40
2022-11-16T11:45:13.416Z,936.84
2022-11-16T11:46:13.381Z,955.82
2022-11-16T11:48:14.349Z,974.33
2022-11-16T11:49:13.368Z,981.96
2022-11-16T11:50:13.324Z,994.73
2022-11-16T11:51:13.338Z,996.43
2022-11-16T11:52:13.306Z,994.38
2022-11-16T11:53:13.367Z,980.63
2022-11-16T11:54:13.291Z,956.80
2022-11-16T11:55:13.272Z,933.36
2022-11-16T11:56:13.261Z,920.71
2022-11-16T11:57:13.365Z,912.76
2022-11-16T11:58:13.252Z,908.67
2022-11-16T11:59:13.252Z,905.13
2022-11-16T12:00:13.305Z,912.09
2022-11-16T12:01:13.211Z,908.73
2022-11-16T12:02:13.204Z,906.86
2022-11-16T12:03:14.170Z,909.87
2022-11-16T12:04:13.218Z,912.66
2022-11-16T12:05:13.154Z,913.50
2022-11-16T12:06:13.151Z,910.82
2022-11-16T12:07:13.177Z,905.78
2022-11-16T12:08:13.133Z,902.40
2022-11-16T12:09:13.133Z,902.57
2022-11-16T12:10:13.133Z,904.69
2022-11-16T12:11:13.092Z,904.48
2022-11-16T12:12:14.786Z,900.27
2022-11-16T12:13:13.082Z,855.99
2022-11-16T12:14:13.271Z,864.21
2022-11-16T12:15:13.060Z,856.82
2022-11-16T12:16:13.058Z,904.58
2022-11-16T12:17:13.036Z,854.09
2022-11-16T12:18:13.034Z,859.92
2022-11-16T12:19:13.064Z,866.51
2022-11-16T12:20:13.029Z,870.62
2022-11-16T12:21:12.982Z,872.92
2022-11-16T12:22:12.986Z,880.56
2022-11-16T12:23:12.967Z,894.18
2022-11-16T12:24:12.963Z,909.32
2022-11-16T12:25:12.955Z,919.32
2022-11-16T12:26:12.951Z,932.59
2022-11-16T12:27:12.920Z,953.64
2022-11-16T12:28:12.935Z,967.09